sensor_id;sensor_type;location;lat;lon;timestamp;temperature;humidity
79513;SHT31;68962;51.980;5.678;2023-07-28T00:00:26;20.3;79.1
79513;SHT31;68962;51.980;5.678;2023-07-28T00:02:54;20.3;79.3
79513;SHT31;68962;51.980;5.678;2023-07-28T00:05:23;20.4;79.2
79513;SHT31;68962;51.980;5.678;2023-07-28T00:07:56;20.5;78.7
79513;SHT31;68962;51.980;5.678;2023-07-28T00:10:24;20.6;78.3
79513;SHT31;68962;51.980;5.678;2023-07-28T00:12:53;20.6;77.7
79513;SHT31;68962;51.980;5.678;2023-07-28T00:15:25;20.7;77.7
79513;SHT31;68962;51.980;5.678;2023-07-28T00:17:53;20.7;77.5
79513;SHT31;68962;51.980;5.678;2023-07-28T00:20:22;20.6;77.6
79513;SHT31;68962;51.980;5.678;2023-07-28T00:22:51;20.6;77.6
79513;SHT31;68962;51.980;5.678;2023-07-28T00:25:19;20.6;77.7
79513;SHT31;68962;51.980;5.678;2023-07-28T00:27:48;20.5;78.1
79513;SHT31;68962;51.980;5.678;2023-07-28T00:30:17;20.5;78.3
79513;SHT31;68962;51.980;5.678;2023-07-28T00:32:46;20.5;78.7
79513;SHT31;68962;51.980;5.678;2023-07-28T00:35:14;20.5;78.7
79513;SHT31;68962;51.980;5.678;2023-07-28T00:37:43;20.5;78.7
79513;SHT31;68962;51.980;5.678;2023-07-28T00:40:12;20.5;78.7
79513;SHT31;68962;51.980;5.678;2023-07-28T00:42:41;20.5;78.4
79513;SHT31;68962;51.980;5.678;2023-07-28T00:45:10;20.5;78.1
79513;SHT31;68962;51.980;5.678;2023-07-28T00:47:39;20.5;78.1
79513;SHT31;68962;51.980;5.678;2023-07-28T00:50:09;20.5;78.2
79513;SHT31;68962;51.980;5.678;2023-07-28T00:52:39;20.5;78.3
79513;SHT31;68962;51.980;5.678;2023-07-28T00:55:08;20.5;78.4
79513;SHT31;68962;51.980;5.678;2023-07-28T00:57:37;20.5;78.6
79513;SHT31;68962;51.980;5.678;2023-07-28T01:00:09;20.5;78.4
79513;SHT31;68962;51.980;5.678;2023-07-28T01:02:38;20.5;78.3
79513;SHT31;68962;51.980;5.678;2023-07-28T01:05:07;20.6;78.1
79513;SHT31;68962;51.980;5.678;2023-07-28T01:07:46;20.6;77.9
79513;SHT31;68962;51.980;5.678;2023-07-28T01:10:21;20.5;78.0
79513;SHT31;68962;51.980;5.678;2023-07-28T01:12:52;20.5;78.1
79513;SHT31;68962;51.980;5.678;2023-07-28T01:15:21;20.5;78.0
79513;SHT31;68962;51.980;5.678;2023-07-28T01:17:50;20.4;78.3
79513;SHT31;68962;51.980;5.678;2023-07-28T01:20:23;20.4;78.6
79513;SHT31;68962;51.980;5.678;2023-07-28T01:23:07;20.4;78.7
79513;SHT31;68962;51.980;5.678;2023-07-28T01:25:49;20.4;78.5
79513;SHT31;68962;51.980;5.678;2023-07-28T01:28:19;20.4;78.6
79513;SHT31;68962;51.980;5.678;2023-07-28T01:30:48;20.4;78.5
79513;SHT31;68962;51.980;5.678;2023-07-28T01:33:17;20.4;78.7
79513;SHT31;68962;51.980;5.678;2023-07-28T01:35:47;20.4;78.9
79513;SHT31;68962;51.980;5.678;2023-07-28T01:38:16;20.4;79.1
79513;SHT31;68962;51.980;5.678;2023-07-28T01:40:45;20.4;79.2
79513;SHT31;68962;51.980;5.678;2023-07-28T01:43:14;20.5;78.7
79513;SHT31;68962;51.980;5.678;2023-07-28T01:45:42;20.6;78.0
79513;SHT31;68962;51.980;5.678;2023-07-28T01:48:11;20.7;77.6
79513;SHT31;68962;51.980;5.678;2023-07-28T01:50:41;20.7;77.3
79513;SHT31;68962;51.980;5.678;2023-07-28T01:53:10;20.8;76.9
79513;SHT31;68962;51.980;5.678;2023-07-28T01:55:39;20.9;76.5
79513;SHT31;68962;51.980;5.678;2023-07-28T01:58:07;21.0;76.1
79513;SHT31;68962;51.980;5.678;2023-07-28T02:00:38;21.0;75.5
79513;SHT31;68962;51.980;5.678;2023-07-28T02:03:06;21.0;75.2
79513;SHT31;68962;51.980;5.678;2023-07-28T02:05:37;21.0;75.2
79513;SHT31;68962;51.980;5.678;2023-07-28T02:08:06;21.0;75.1
79513;SHT31;68962;51.980;5.678;2023-07-28T02:10:34;20.9;75.3
79513;SHT31;68962;51.980;5.678;2023-07-28T02:13:03;20.9;75.6
79513;SHT31;68962;51.980;5.678;2023-07-28T02:15:31;20.8;75.9
79513;SHT31;68962;51.980;5.678;2023-07-28T02:18:00;20.8;76.3
79513;SHT31;68962;51.980;5.678;2023-07-28T02:20:29;20.8;76.5
79513;SHT31;68962;51.980;5.678;2023-07-28T02:22:57;20.8;76.3
79513;SHT31;68962;51.980;5.678;2023-07-28T02:25:26;20.8;76.4
79513;SHT31;68962;51.980;5.678;2023-07-28T02:27:55;20.8;76.2
79513;SHT31;68962;51.980;5.678;2023-07-28T02:30:24;20.8;76.1
79513;SHT31;68962;51.980;5.678;2023-07-28T02:32:53;20.8;76.3
79513;SHT31;68962;51.980;5.678;2023-07-28T02:35:21;20.8;76.3
79513;SHT31;68962;51.980;5.678;2023-07-28T02:37:50;20.8;76.2
79513;SHT31;68962;51.980;5.678;2023-07-28T02:40:18;20.8;76.4
79513;SHT31;68962;51.980;5.678;2023-07-28T02:42:48;20.8;76.4
79513;SHT31;68962;51.980;5.678;2023-07-28T02:45:16;20.8;76.6
79513;SHT31;68962;51.980;5.678;2023-07-28T02:47:46;20.8;76.8
79513;SHT31;68962;51.980;5.678;2023-07-28T02:50:14;20.9;76.6
79513;SHT31;68962;51.980;5.678;2023-07-28T02:52:43;20.9;76.2
79513;SHT31;68962;51.980;5.678;2023-07-28T02:55:14;20.9;76.2
79513;SHT31;68962;51.980;5.678;2023-07-28T02:57:42;20.9;76.1
79513;SHT31;68962;51.980;5.678;2023-07-28T03:00:12;20.9;76.1
79513;SHT31;68962;51.980;5.678;2023-07-28T03:02:40;20.9;76.2
79513;SHT31;68962;51.980;5.678;2023-07-28T03:05:09;20.8;76.3
79513;SHT31;68962;51.980;5.678;2023-07-28T03:07:39;20.8;76.6
79513;SHT31;68962;51.980;5.678;2023-07-28T03:10:08;20.8;76.7
79513;SHT31;68962;51.980;5.678;2023-07-28T03:12:40;20.7;76.9
79513;SHT31;68962;51.980;5.678;2023-07-28T03:15:09;20.7;77.0
79513;SHT31;68962;51.980;5.678;2023-07-28T03:17:38;20.7;77.2
79513;SHT31;68962;51.980;5.678;2023-07-28T03:20:07;20.7;77.2
79513;SHT31;68962;51.980;5.678;2023-07-28T03:22:36;20.7;77.5
79513;SHT31;68962;51.980;5.678;2023-07-28T03:25:05;20.7;77.5
79513;SHT31;68962;51.980;5.678;2023-07-28T03:27:36;20.7;77.4
79513;SHT31;68962;51.980;5.678;2023-07-28T03:30:06;20.8;77.3
79513;SHT31;68962;51.980;5.678;2023-07-28T03:32:43;20.9;77.3
79513;SHT31;68962;51.980;5.678;2023-07-28T03:35:13;21.0;76.8
79513;SHT31;68962;51.980;5.678;2023-07-28T03:37:42;21.0;76.4
79513;SHT31;68962;51.980;5.678;2023-07-28T03:40:11;21.1;76.2
79513;SHT31;68962;51.980;5.678;2023-07-28T03:42:39;21.1;75.9
79513;SHT31;68962;51.980;5.678;2023-07-28T03:45:11;21.1;76.1
79513;SHT31;68962;51.980;5.678;2023-07-28T03:47:42;21.0;76.2
79513;SHT31;68962;51.980;5.678;2023-07-28T03:50:11;21.0;76.4
79513;SHT31;68962;51.980;5.678;2023-07-28T03:52:41;21.0;76.8
79513;SHT31;68962;51.980;5.678;2023-07-28T03:55:10;21.0;77.1
79513;SHT31;68962;51.980;5.678;2023-07-28T03:57:38;21.1;76.9
79513;SHT31;68962;51.980;5.678;2023-07-28T04:00:08;21.1;76.4
79513;SHT31;68962;51.980;5.678;2023-07-28T04:02:36;21.1;76.4
79513;SHT31;68962;51.980;5.678;2023-07-28T04:05:07;21.1;76.6
79513;SHT31;68962;51.980;5.678;2023-07-28T04:07:36;21.0;76.8
79513;SHT31;68962;51.980;5.678;2023-07-28T04:10:05;21.0;76.7
79513;SHT31;68962;51.980;5.678;2023-07-28T04:12:34;21.0;77.3
79513;SHT31;68962;51.980;5.678;2023-07-28T04:15:03;21.0;77.4
79513;SHT31;68962;51.980;5.678;2023-07-28T04:17:32;20.9;77.5
79513;SHT31;68962;51.980;5.678;2023-07-28T04:20:01;20.9;77.6
79513;SHT31;68962;51.980;5.678;2023-07-28T04:22:31;20.8;77.9
79513;SHT31;68962;51.980;5.678;2023-07-28T04:25:00;20.8;78.0
79513;SHT31;68962;51.980;5.678;2023-07-28T04:27:28;20.8;78.1
79513;SHT31;68962;51.980;5.678;2023-07-28T04:29:57;20.7;78.4
79513;SHT31;68962;51.980;5.678;2023-07-28T04:32:26;20.7;78.9
79513;SHT31;68962;51.980;5.678;2023-07-28T04:34:56;20.6;78.8
79513;SHT31;68962;51.980;5.678;2023-07-28T04:37:24;20.6;79.1
79513;SHT31;68962;51.980;5.678;2023-07-28T04:39:53;20.6;79.7
79513;SHT31;68962;51.980;5.678;2023-07-28T04:42:26;20.6;79.3
79513;SHT31;68962;51.980;5.678;2023-07-28T04:44:54;20.7;79.1
79513;SHT31;68962;51.980;5.678;2023-07-28T04:47:23;20.7;79.0
79513;SHT31;68962;51.980;5.678;2023-07-28T04:49:51;20.7;79.0
79513;SHT31;68962;51.980;5.678;2023-07-28T04:52:20;20.7;79.0
79513;SHT31;68962;51.980;5.678;2023-07-28T04:54:48;20.8;78.7
79513;SHT31;68962;51.980;5.678;2023-07-28T04:57:18;20.8;78.6
79513;SHT31;68962;51.980;5.678;2023-07-28T04:59:47;20.8;78.2
79513;SHT31;68962;51.980;5.678;2023-07-28T05:02:15;20.8;78.3
79513;SHT31;68962;51.980;5.678;2023-07-28T05:04:44;20.8;78.2
79513;SHT31;68962;51.980;5.678;2023-07-28T05:07:14;20.8;78.4
79513;SHT31;68962;51.980;5.678;2023-07-28T05:09:43;20.7;78.6
79513;SHT31;68962;51.980;5.678;2023-07-28T05:12:11;20.7;78.9
79513;SHT31;68962;51.980;5.678;2023-07-28T05:14:40;20.7;78.9
79513;SHT31;68962;51.980;5.678;2023-07-28T05:17:09;20.7;79.2
79513;SHT31;68962;51.980;5.678;2023-07-28T05:19:37;20.6;79.2
79513;SHT31;68962;51.980;5.678;2023-07-28T05:22:08;20.6;79.2
79513;SHT31;68962;51.980;5.678;2023-07-28T05:24:37;20.6;79.2
79513;SHT31;68962;51.980;5.678;2023-07-28T05:27:05;20.6;79.7
79513;SHT31;68962;51.980;5.678;2023-07-28T05:29:36;20.6;79.8
79513;SHT31;68962;51.980;5.678;2023-07-28T05:32:06;20.6;79.9
79513;SHT31;68962;51.980;5.678;2023-07-28T05:34:34;20.6;79.8
79513;SHT31;68962;51.980;5.678;2023-07-28T05:37:06;20.7;79.6
79513;SHT31;68962;51.980;5.678;2023-07-28T05:39:37;20.7;79.7
79513;SHT31;68962;51.980;5.678;2023-07-28T05:42:10;20.9;79.3
79513;SHT31;68962;51.980;5.678;2023-07-28T05:44:39;21.0;78.7
79513;SHT31;68962;51.980;5.678;2023-07-28T05:47:08;21.0;78.5
79513;SHT31;68962;51.980;5.678;2023-07-28T05:49:37;21.1;78.0
79513;SHT31;68962;51.980;5.678;2023-07-28T05:52:07;21.1;77.6
79513;SHT31;68962;51.980;5.678;2023-07-28T05:54:35;21.1;77.7
79513;SHT31;68962;51.980;5.678;2023-07-28T05:57:04;21.0;77.9
79513;SHT31;68962;51.980;5.678;2023-07-28T05:59:33;21.0;78.0
79513;SHT31;68962;51.980;5.678;2023-07-28T06:02:01;20.9;78.3
79513;SHT31;68962;51.980;5.678;2023-07-28T06:04:32;20.9;78.4
79513;SHT31;68962;51.980;5.678;2023-07-28T06:07:02;20.8;78.8
79513;SHT31;68962;51.980;5.678;2023-07-28T06:09:31;20.8;79.1
79513;SHT31;68962;51.980;5.678;2023-07-28T06:12:00;20.8;79.5
79513;SHT31;68962;51.980;5.678;2023-07-28T06:14:28;20.8;79.5
79513;SHT31;68962;51.980;5.678;2023-07-28T06:16:57;20.8;79.5
79513;SHT31;68962;51.980;5.678;2023-07-28T06:19:25;20.7;79.4
79513;SHT31;68962;51.980;5.678;2023-07-28T06:21:54;20.7;79.6
79513;SHT31;68962;51.980;5.678;2023-07-28T06:24:25;20.7;79.7
79513;SHT31;68962;51.980;5.678;2023-07-28T06:26:53;20.7;79.6
79513;SHT31;68962;51.980;5.678;2023-07-28T06:29:23;20.7;79.6
79513;SHT31;68962;51.980;5.678;2023-07-28T06:31:51;20.8;79.7
79513;SHT31;68962;51.980;5.678;2023-07-28T06:34:20;20.8;79.5
79513;SHT31;68962;51.980;5.678;2023-07-28T06:36:49;20.8;79.6
79513;SHT31;68962;51.980;5.678;2023-07-28T06:39:19;20.8;79.2
79513;SHT31;68962;51.980;5.678;2023-07-28T06:41:48;20.8;79.1
79513;SHT31;68962;51.980;5.678;2023-07-28T06:44:16;20.8;79.1
79513;SHT31;68962;51.980;5.678;2023-07-28T06:46:45;20.8;78.8
79513;SHT31;68962;51.980;5.678;2023-07-28T06:49:13;20.8;78.6
79513;SHT31;68962;51.980;5.678;2023-07-28T06:51:42;20.8;78.9
79513;SHT31;68962;51.980;5.678;2023-07-28T06:54:11;20.8;79.1
79513;SHT31;68962;51.980;5.678;2023-07-28T06:56:39;20.9;78.9
79513;SHT31;68962;51.980;5.678;2023-07-28T06:59:08;20.9;78.9
79513;SHT31;68962;51.980;5.678;2023-07-28T07:01:38;20.9;79.2
79513;SHT31;68962;51.980;5.678;2023-07-28T07:04:06;20.9;79.3
79513;SHT31;68962;51.980;5.678;2023-07-28T07:06:35;20.9;78.8
79513;SHT31;68962;51.980;5.678;2023-07-28T07:09:04;20.9;78.4
79513;SHT31;68962;51.980;5.678;2023-07-28T07:11:32;20.9;78.5
79513;SHT31;68962;51.980;5.678;2023-07-28T07:14:05;20.9;78.6
79513;SHT31;68962;51.980;5.678;2023-07-28T07:16:34;20.9;78.9
79513;SHT31;68962;51.980;5.678;2023-07-28T07:19:03;20.9;79.3
79513;SHT31;68962;51.980;5.678;2023-07-28T07:21:32;20.9;78.9
79513;SHT31;68962;51.980;5.678;2023-07-28T07:24:01;20.9;78.9
79513;SHT31;68962;51.980;5.678;2023-07-28T07:26:30;20.9;78.6
79513;SHT31;68962;51.980;5.678;2023-07-28T07:28:59;20.9;78.8
79513;SHT31;68962;51.980;5.678;2023-07-28T07:31:28;21.0;78.6
79513;SHT31;68962;51.980;5.678;2023-07-28T07:33:58;21.0;78.0
79513;SHT31;68962;51.980;5.678;2023-07-28T07:36:27;21.0;78.2
79513;SHT31;68962;51.980;5.678;2023-07-28T07:38:55;21.0;78.0
79513;SHT31;68962;51.980;5.678;2023-07-28T07:41:25;21.1;78.2
79513;SHT31;68962;51.980;5.678;2023-07-28T07:43:54;21.1;77.9
79513;SHT31;68962;51.980;5.678;2023-07-28T07:46:23;21.2;77.5
79513;SHT31;68962;51.980;5.678;2023-07-28T07:48:52;21.3;77.4
79513;SHT31;68962;51.980;5.678;2023-07-28T07:51:22;21.3;76.9
79513;SHT31;68962;51.980;5.678;2023-07-28T07:53:51;21.4;76.4
79513;SHT31;68962;51.980;5.678;2023-07-28T07:56:20;21.4;76.5
79513;SHT31;68962;51.980;5.678;2023-07-28T07:58:49;21.5;76.4
79513;SHT31;68962;51.980;5.678;2023-07-28T08:01:22;21.6;76.2
79513;SHT31;68962;51.980;5.678;2023-07-28T08:03:50;21.6;75.4
79513;SHT31;68962;51.980;5.678;2023-07-28T08:06:19;21.7;75.5
79513;SHT31;68962;51.980;5.678;2023-07-28T08:08:47;21.7;75.1
79513;SHT31;68962;51.980;5.678;2023-07-28T08:11:18;21.7;74.6
79513;SHT31;68962;51.980;5.678;2023-07-28T08:13:47;21.7;74.7
79513;SHT31;68962;51.980;5.678;2023-07-28T08:16:16;21.7;75.0
79513;SHT31;68962;51.980;5.678;2023-07-28T08:18:45;21.8;75.0
79513;SHT31;68962;51.980;5.678;2023-07-28T08:21:13;21.9;75.0
79513;SHT31;68962;51.980;5.678;2023-07-28T08:23:47;22.0;74.1
79513;SHT31;68962;51.980;5.678;2023-07-28T08:26:16;22.0;73.5
79513;SHT31;68962;51.980;5.678;2023-07-28T08:28:44;22.0;73.4
79513;SHT31;68962;51.980;5.678;2023-07-28T08:31:13;22.0;73.4
79513;SHT31;68962;51.980;5.678;2023-07-28T08:33:41;22.1;73.4
79513;SHT31;68962;51.980;5.678;2023-07-28T08:36:10;22.1;73.2
79513;SHT31;68962;51.980;5.678;2023-07-28T08:38:39;22.1;72.8
79513;SHT31;68962;51.980;5.678;2023-07-28T08:41:07;22.1;72.8
79513;SHT31;68962;51.980;5.678;2023-07-28T08:43:36;22.1;72.7
79513;SHT31;68962;51.980;5.678;2023-07-28T08:46:05;22.1;73.1
79513;SHT31;68962;51.980;5.678;2023-07-28T08:48:34;22.1;73.3
79513;SHT31;68962;51.980;5.678;2023-07-28T08:51:03;22.1;73.5
79513;SHT31;68962;51.980;5.678;2023-07-28T08:53:36;22.1;73.6
79513;SHT31;68962;51.980;5.678;2023-07-28T08:56:05;22.1;73.5
79513;SHT31;68962;51.980;5.678;2023-07-28T08:58:34;22.1;73.8
79513;SHT31;68962;51.980;5.678;2023-07-28T09:01:05;22.2;73.2
79513;SHT31;68962;51.980;5.678;2023-07-28T09:03:35;22.2;73.9
79513;SHT31;68962;51.980;5.678;2023-07-28T09:06:07;22.3;73.4
79513;SHT31;68962;51.980;5.678;2023-07-28T09:08:37;22.5;72.0
79513;SHT31;68962;51.980;5.678;2023-07-28T09:11:06;22.6;71.4
79513;SHT31;68962;51.980;5.678;2023-07-28T09:13:39;22.8;70.7
79513;SHT31;68962;51.980;5.678;2023-07-28T09:16:18;23.1;70.0
79513;SHT31;68962;51.980;5.678;2023-07-28T09:18:47;23.5;69.2
79513;SHT31;68962;51.980;5.678;2023-07-28T09:21:20;23.9;68.0
79513;SHT31;68962;51.980;5.678;2023-07-28T09:23:50;24.4;64.8
79513;SHT31;68962;51.980;5.678;2023-07-28T09:26:18;24.7;63.5
79513;SHT31;68962;51.980;5.678;2023-07-28T09:28:47;24.8;62.9
79513;SHT31;68962;51.980;5.678;2023-07-28T09:31:16;24.9;62.7
79513;SHT31;68962;51.980;5.678;2023-07-28T09:33:44;25.0;62.6
79513;SHT31;68962;51.980;5.678;2023-07-28T09:36:14;25.0;63.2
79513;SHT31;68962;51.980;5.678;2023-07-28T09:38:43;25.1;62.2
79513;SHT31;68962;51.980;5.678;2023-07-28T09:41:12;25.2;61.8
79513;SHT31;68962;51.980;5.678;2023-07-28T09:43:41;25.2;62.2
79513;SHT31;68962;51.980;5.678;2023-07-28T09:46:13;25.2;62.2
79513;SHT31;68962;51.980;5.678;2023-07-28T09:48:45;25.2;61.8
79513;SHT31;68962;51.980;5.678;2023-07-28T09:51:17;25.2;61.8
79513;SHT31;68962;51.980;5.678;2023-07-28T09:53:52;25.2;62.2
79513;SHT31;68962;51.980;5.678;2023-07-28T09:56:27;25.4;61.3
79513;SHT31;68962;51.980;5.678;2023-07-28T09:58:58;25.8;59.7
79513;SHT31;68962;51.980;5.678;2023-07-28T10:01:28;26.3;58.6
79513;SHT31;68962;51.980;5.678;2023-07-28T10:04:00;26.6;58.8
79513;SHT31;68962;51.980;5.678;2023-07-28T10:06:29;27.2;56.7
79513;SHT31;68962;51.980;5.678;2023-07-28T10:09:00;28.1;53.7
79513;SHT31;68962;51.980;5.678;2023-07-28T10:11:32;28.4;52.4
79513;SHT31;68962;51.980;5.678;2023-07-28T10:14:03;28.6;52.0
79513;SHT31;68962;51.980;5.678;2023-07-28T10:16:39;28.5;51.9
79513;SHT31;68962;51.980;5.678;2023-07-28T10:19:09;28.4;52.3
79513;SHT31;68962;51.980;5.678;2023-07-28T10:21:42;28.4;51.8
79513;SHT31;68962;51.980;5.678;2023-07-28T10:24:14;28.4;51.0
79513;SHT31;68962;51.980;5.678;2023-07-28T10:26:48;28.4;51.5
79513;SHT31;68962;51.980;5.678;2023-07-28T10:29:17;28.5;51.8
79513;SHT31;68962;51.980;5.678;2023-07-28T10:31:56;28.6;51.1
79513;SHT31;68962;51.980;5.678;2023-07-28T10:34:24;28.6;51.1
79513;SHT31;68962;51.980;5.678;2023-07-28T10:37:06;28.7;51.2
79513;SHT31;68962;51.980;5.678;2023-07-28T10:39:46;28.8;50.1
79513;SHT31;68962;51.980;5.678;2023-07-28T10:42:15;28.8;50.2
79513;SHT31;68962;51.980;5.678;2023-07-28T10:44:45;28.8;50.3
79513;SHT31;68962;51.980;5.678;2023-07-28T10:47:18;28.7;50.3
79513;SHT31;68962;51.980;5.678;2023-07-28T10:49:51;28.6;51.0
79513;SHT31;68962;51.980;5.678;2023-07-28T10:52:27;28.6;50.5
79513;SHT31;68962;51.980;5.678;2023-07-28T10:54:58;28.6;50.4
79513;SHT31;68962;51.980;5.678;2023-07-28T10:57:29;28.6;50.5
79513;SHT31;68962;51.980;5.678;2023-07-28T11:00:25;28.5;51.2
79513;SHT31;68962;51.980;5.678;2023-07-28T11:03:05;28.5;50.9
79513;SHT31;68962;51.980;5.678;2023-07-28T11:10:42;28.8;50.9
79513;SHT31;68962;51.980;5.678;2023-07-28T11:13:17;28.9;49.1
79513;SHT31;68962;51.980;5.678;2023-07-28T11:20:34;28.8;49.0
79513;SHT31;68962;51.980;5.678;2023-07-28T11:23:10;28.8;49.6
79513;SHT31;68962;51.980;5.678;2023-07-28T11:30:50;28.8;49.5
79513;SHT31;68962;51.980;5.678;2023-07-28T11:33:22;28.7;49.2
79513;SHT31;68962;51.980;5.678;2023-07-28T11:38:20;28.5;50.0
79513;SHT31;68962;51.980;5.678;2023-07-28T11:40:50;28.4;51.2
79513;SHT31;68962;51.980;5.678;2023-07-28T11:43:22;28.3;50.8
79513;SHT31;68962;51.980;5.678;2023-07-28T11:45:53;28.3;50.5
79513;SHT31;68962;51.980;5.678;2023-07-28T11:48:22;28.2;50.6
79513;SHT31;68962;51.980;5.678;2023-07-28T11:50:51;28.1;51.4
79513;SHT31;68962;51.980;5.678;2023-07-28T11:53:25;28.1;51.6
79513;SHT31;68962;51.980;5.678;2023-07-28T11:55:54;28.1;51.4
79513;SHT31;68962;51.980;5.678;2023-07-28T11:58:24;28.1;51.6
79513;SHT31;68962;51.980;5.678;2023-07-28T12:00:52;28.2;51.4
79513;SHT31;68962;51.980;5.678;2023-07-28T12:03:30;28.3;51.0
79513;SHT31;68962;51.980;5.678;2023-07-28T12:06:05;28.3;50.7
79513;SHT31;68962;51.980;5.678;2023-07-28T12:08:37;28.3;51.0
79513;SHT31;68962;51.980;5.678;2023-07-28T12:11:13;28.4;50.8
79513;SHT31;68962;51.980;5.678;2023-07-28T12:13:50;28.4;51.2
79513;SHT31;68962;51.980;5.678;2023-07-28T12:16:38;28.4;50.5
79513;SHT31;68962;51.980;5.678;2023-07-28T12:19:08;28.4;50.7
79513;SHT31;68962;51.980;5.678;2023-07-28T12:21:36;28.4;50.4
79513;SHT31;68962;51.980;5.678;2023-07-28T12:24:05;28.4;51.8
79513;SHT31;68962;51.980;5.678;2023-07-28T12:26:33;28.3;51.3
79513;SHT31;68962;51.980;5.678;2023-07-28T12:29:02;28.3;51.2
79513;SHT31;68962;51.980;5.678;2023-07-28T12:31:31;28.3;51.3
79513;SHT31;68962;51.980;5.678;2023-07-28T12:34:00;28.2;50.9
79513;SHT31;68962;51.980;5.678;2023-07-28T12:36:28;28.2;51.0
79513;SHT31;68962;51.980;5.678;2023-07-28T12:38:57;28.3;50.8
79513;SHT31;68962;51.980;5.678;2023-07-28T12:41:25;28.3;49.9
79513;SHT31;68962;51.980;5.678;2023-07-28T12:43:54;28.3;50.0
79513;SHT31;68962;51.980;5.678;2023-07-28T12:46:23;28.3;50.5
79513;SHT31;68962;51.980;5.678;2023-07-28T12:48:51;28.3;50.7
79513;SHT31;68962;51.980;5.678;2023-07-28T12:51:20;28.3;50.3
79513;SHT31;68962;51.980;5.678;2023-07-28T12:53:49;28.3;50.2
79513;SHT31;68962;51.980;5.678;2023-07-28T12:56:18;28.2;50.0
79513;SHT31;68962;51.980;5.678;2023-07-28T12:58:46;28.2;49.7
79513;SHT31;68962;51.980;5.678;2023-07-28T13:01:15;28.1;50.0
79513;SHT31;68962;51.980;5.678;2023-07-28T13:03:43;28.1;50.7
79513;SHT31;68962;51.980;5.678;2023-07-28T13:06:12;28.1;50.5
79513;SHT31;68962;51.980;5.678;2023-07-28T13:08:41;28.1;50.9
79513;SHT31;68962;51.980;5.678;2023-07-28T13:11:10;28.2;51.4
79513;SHT31;68962;51.980;5.678;2023-07-28T13:13:41;28.2;51.2
79513;SHT31;68962;51.980;5.678;2023-07-28T13:16:10;28.2;51.6
79513;SHT31;68962;51.980;5.678;2023-07-28T13:18:38;28.3;50.8
79513;SHT31;68962;51.980;5.678;2023-07-28T13:21:08;28.3;49.5
79513;SHT31;68962;51.980;5.678;2023-07-28T13:23:37;28.2;49.3
79513;SHT31;68962;51.980;5.678;2023-07-28T13:26:06;28.2;49.5
79513;SHT31;68962;51.980;5.678;2023-07-28T13:28:35;28.1;49.7
79513;SHT31;68962;51.980;5.678;2023-07-28T13:31:04;28.1;50.8
79513;SHT31;68962;51.980;5.678;2023-07-28T13:33:32;28.0;51.1
79513;SHT31;68962;51.980;5.678;2023-07-28T13:36:01;28.0;50.6
79513;SHT31;68962;51.980;5.678;2023-07-28T13:38:33;28.0;50.6
79513;SHT31;68962;51.980;5.678;2023-07-28T13:41:04;28.1;49.4
79513;SHT31;68962;51.980;5.678;2023-07-28T13:43:34;28.1;50.3
79513;SHT31;68962;51.980;5.678;2023-07-28T13:46:04;28.1;50.2
79513;SHT31;68962;51.980;5.678;2023-07-28T13:48:33;28.1;50.5
79513;SHT31;68962;51.980;5.678;2023-07-28T13:51:02;28.1;49.4
79513;SHT31;68962;51.980;5.678;2023-07-28T13:53:31;28.2;49.8
79513;SHT31;68962;51.980;5.678;2023-07-28T13:56:00;28.3;48.5
79513;SHT31;68962;51.980;5.678;2023-07-28T13:58:29;28.3;48.6
79513;SHT31;68962;51.980;5.678;2023-07-28T14:00:58;28.3;49.5
79513;SHT31;68962;51.980;5.678;2023-07-28T14:03:26;28.2;48.4
79513;SHT31;68962;51.980;5.678;2023-07-28T14:05:55;28.1;48.8
79513;SHT31;68962;51.980;5.678;2023-07-28T14:08:24;28.0;49.8
79513;SHT31;68962;51.980;5.678;2023-07-28T14:10:53;28.0;49.4
79513;SHT31;68962;51.980;5.678;2023-07-28T14:13:22;27.9;49.5
79513;SHT31;68962;51.980;5.678;2023-07-28T14:15:51;27.9;50.1
79513;SHT31;68962;51.980;5.678;2023-07-28T14:18:20;27.8;48.9
79513;SHT31;68962;51.980;5.678;2023-07-28T14:20:48;27.8;49.0
79513;SHT31;68962;51.980;5.678;2023-07-28T14:23:25;27.8;48.6
79513;SHT31;68962;51.980;5.678;2023-07-28T14:25:56;27.8;48.6
79513;SHT31;68962;51.980;5.678;2023-07-28T14:28:26;27.8;50.1
79513;SHT31;68962;51.980;5.678;2023-07-28T14:30:55;27.8;50.1
79513;SHT31;68962;51.980;5.678;2023-07-28T14:33:24;27.8;49.7
79513;SHT31;68962;51.980;5.678;2023-07-28T14:35:52;27.8;49.7
79513;SHT31;68962;51.980;5.678;2023-07-28T14:38:23;27.8;49.5
79513;SHT31;68962;51.980;5.678;2023-07-28T14:40:53;27.8;50.3
79513;SHT31;68962;51.980;5.678;2023-07-28T14:43:22;27.8;50.4
79513;SHT31;68962;51.980;5.678;2023-07-28T14:45:51;27.8;50.1
79513;SHT31;68962;51.980;5.678;2023-07-28T14:48:21;27.8;50.1
79513;SHT31;68962;51.980;5.678;2023-07-28T14:50:49;27.8;49.4
79513;SHT31;68962;51.980;5.678;2023-07-28T14:53:32;27.9;49.0
79513;SHT31;68962;51.980;5.678;2023-07-28T14:56:03;27.9;49.1
79513;SHT31;68962;51.980;5.678;2023-07-28T14:58:33;27.9;49.6
79513;SHT31;68962;51.980;5.678;2023-07-28T15:01:03;27.9;49.6
79513;SHT31;68962;51.980;5.678;2023-07-28T15:03:34;27.9;49.5
79513;SHT31;68962;51.980;5.678;2023-07-28T15:06:03;27.9;49.8
79513;SHT31;68962;51.980;5.678;2023-07-28T15:08:32;27.9;50.1
79513;SHT31;68962;51.980;5.678;2023-07-28T15:11:01;27.8;50.3
79513;SHT31;68962;51.980;5.678;2023-07-28T15:13:29;27.7;50.8
79513;SHT31;68962;51.980;5.678;2023-07-28T15:16:00;27.5;51.6
79513;SHT31;68962;51.980;5.678;2023-07-28T15:18:30;27.4;52.2
79513;SHT31;68962;51.980;5.678;2023-07-28T15:20:59;27.3;52.9
79513;SHT31;68962;51.980;5.678;2023-07-28T15:23:30;27.3;53.3
79513;SHT31;68962;51.980;5.678;2023-07-28T15:25:59;27.3;53.7
79513;SHT31;68962;51.980;5.678;2023-07-28T15:28:28;27.2;53.2
79513;SHT31;68962;51.980;5.678;2023-07-28T15:30:57;27.2;52.9
79513;SHT31;68962;51.980;5.678;2023-07-28T15:33:26;27.3;52.8
79513;SHT31;68962;51.980;5.678;2023-07-28T15:35:57;27.3;52.7
79513;SHT31;68962;51.980;5.678;2023-07-28T15:38:26;27.4;52.5
79513;SHT31;68962;51.980;5.678;2023-07-28T15:40:56;27.4;52.4
79513;SHT31;68962;51.980;5.678;2023-07-28T15:43:25;27.5;52.5
79513;SHT31;68962;51.980;5.678;2023-07-28T15:45:53;27.5;52.6
79513;SHT31;68962;51.980;5.678;2023-07-28T15:48:22;27.5;52.9
79513;SHT31;68962;51.980;5.678;2023-07-28T15:50:50;27.5;52.7
79513;SHT31;68962;51.980;5.678;2023-07-28T15:53:20;27.5;52.8
79513;SHT31;68962;51.980;5.678;2023-07-28T15:55:49;27.4;51.8
79513;SHT31;68962;51.980;5.678;2023-07-28T15:58:18;27.4;51.7
79513;SHT31;68962;51.980;5.678;2023-07-28T16:00:46;27.3;51.4
79513;SHT31;68962;51.980;5.678;2023-07-28T16:03:17;27.3;51.1
79513;SHT31;68962;51.980;5.678;2023-07-28T16:05:45;27.2;52.0
79513;SHT31;68962;51.980;5.678;2023-07-28T16:08:14;27.1;52.1
79513;SHT31;68962;51.980;5.678;2023-07-28T16:10:42;27.1;52.2
79513;SHT31;68962;51.980;5.678;2023-07-28T16:13:11;27.1;52.3
79513;SHT31;68962;51.980;5.678;2023-07-28T16:15:39;27.0;52.7
79513;SHT31;68962;51.980;5.678;2023-07-28T16:18:08;27.0;52.0
79513;SHT31;68962;51.980;5.678;2023-07-28T16:20:37;27.0;52.5
79513;SHT31;68962;51.980;5.678;2023-07-28T16:23:06;26.9;53.0
79513;SHT31;68962;51.980;5.678;2023-07-28T16:25:35;26.9;53.0
79513;SHT31;68962;51.980;5.678;2023-07-28T16:28:04;26.9;53.6
79513;SHT31;68962;51.980;5.678;2023-07-28T16:30:32;26.9;53.6
79513;SHT31;68962;51.980;5.678;2023-07-28T16:33:01;26.9;53.4
79513;SHT31;68962;51.980;5.678;2023-07-28T16:35:29;27.0;53.6